EWG8XS EDDK-LOWW
Flight info
| Callsign | EWG8XS |
|---|---|
| Flight time | 1h 27m |
| Altitude | 37000 |
| Route | KUMIK1R KUMIK L603 TESGA DCT ESATI DCT BARSU DCT EKSOS DCT LULAR DCT RUDAP DCT BUDEX BUDEX2W |
| Aircraft | A319/M-SDE3FGHIRWY/LB1 |
Departure
| Time | 2026-05-06 18:38 |
|---|---|
| Airport | Cologne Bonn Airport (EDDK) |
Arrival
| Time | 2026-05-06 20:05 |
|---|---|
| Airport | Vienna International Airport (LOWW) |
| Time | Latitude | Longitude | Altitude | Speed | Heading |
|---|---|---|---|---|---|
| 2026-05-06 17:41 | 50.87698 | 7.12380 | 233 ft | 0 kts | 288° |
| 2026-05-06 17:41 | 50.87696 | 7.12387 | 234 ft | 0 kts | 288° |
| 2026-05-06 18:17 | 50.87695 | 7.12389 | 232 ft | 2 kts | 288° |
| 2026-05-06 18:17 | 50.87687 | 7.12427 | 236 ft | 4 kts | 288° |
| 2026-05-06 18:17 | 50.87680 | 7.12460 | 235 ft | 4 kts | 302° |
| 2026-05-06 18:17 | 50.87662 | 7.12485 | 233 ft | 4 kts | 350° |
| 2026-05-06 18:18 | 50.87636 | 7.12483 | 232 ft | 4 kts | 17° |
| 2026-05-06 18:18 | 50.87627 | 7.12478 | 233 ft | 0 kts | 18° |
| 2026-05-06 18:22 | 50.87633 | 7.12481 | 232 ft | 2 kts | 18° |
| 2026-05-06 18:22 | 50.87658 | 7.12495 | 232 ft | 5 kts | 19° |
| 2026-05-06 18:22 | 50.87702 | 7.12519 | 233 ft | 8 kts | 19° |
| 2026-05-06 18:22 | 50.87758 | 7.12569 | 232 ft | 11 kts | 56° |
| 2026-05-06 18:23 | 50.87764 | 7.12699 | 232 ft | 13 kts | 112° |
| 2026-05-06 18:23 | 50.87693 | 7.12807 | 232 ft | 15 kts | 137° |
| 2026-05-06 18:23 | 50.87608 | 7.12931 | 232 ft | 18 kts | 137° |
| 2026-05-06 18:23 | 50.87512 | 7.13070 | 232 ft | 20 kts | 138° |
| 2026-05-06 18:24 | 50.87403 | 7.13226 | 232 ft | 22 kts | 137° |
| 2026-05-06 18:24 | 50.87284 | 7.13398 | 233 ft | 24 kts | 137° |
| 2026-05-06 18:24 | 50.87161 | 7.13580 | 238 ft | 24 kts | 137° |
| 2026-05-06 18:24 | 50.87038 | 7.13757 | 242 ft | 24 kts | 137° |
| 2026-05-06 18:25 | 50.86916 | 7.13932 | 251 ft | 22 kts | 137° |
| 2026-05-06 18:25 | 50.86815 | 7.14078 | 255 ft | 20 kts | 137° |
| 2026-05-06 18:25 | 50.86719 | 7.14162 | 257 ft | 9 kts | 150° |
| 2026-05-06 18:25 | 50.86674 | 7.14222 | 242 ft | 8 kts | 137° |
| 2026-05-06 18:26 | 50.86636 | 7.14278 | 261 ft | 8 kts | 137° |
| 2026-05-06 18:26 | 50.86582 | 7.14357 | 262 ft | 13 kts | 137° |
| 2026-05-06 18:26 | 50.86512 | 7.14458 | 265 ft | 14 kts | 137° |
| 2026-05-06 18:26 | 50.86440 | 7.14561 | 270 ft | 14 kts | 138° |
| 2026-05-06 18:27 | 50.86364 | 7.14668 | 274 ft | 15 kts | 138° |
| 2026-05-06 18:27 | 50.86283 | 7.14788 | 279 ft | 17 kts | 137° |
| 2026-05-06 18:27 | 50.86195 | 7.14917 | 284 ft | 18 kts | 137° |
| 2026-05-06 18:27 | 50.86098 | 7.15057 | 287 ft | 20 kts | 137° |
| 2026-05-06 18:28 | 50.85986 | 7.15220 | 291 ft | 23 kts | 137° |
| 2026-05-06 18:28 | 50.85858 | 7.15405 | 298 ft | 26 kts | 137° |
| 2026-05-06 18:28 | 50.85715 | 7.15612 | 303 ft | 29 kts | 137° |
| 2026-05-06 18:28 | 50.85597 | 7.15782 | 305 ft | 21 kts | 137° |
| 2026-05-06 18:29 | 50.85490 | 7.15937 | 308 ft | 21 kts | 137° |
| 2026-05-06 18:29 | 50.85399 | 7.16070 | 308 ft | 13 kts | 137° |
| 2026-05-06 18:29 | 50.85342 | 7.16197 | 308 ft | 16 kts | 109° |
| 2026-05-06 18:29 | 50.85345 | 7.16355 | 308 ft | 12 kts | 71° |
| 2026-05-06 18:30 | 50.85375 | 7.16436 | 308 ft | 6 kts | 50° |
| 2026-05-06 18:30 | 50.85381 | 7.16445 | 308 ft | 0 kts | 46° |
| 2026-05-06 18:30 | 50.85381 | 7.16446 | 308 ft | 1 kts | 46° |
| 2026-05-06 18:30 | 50.85398 | 7.16471 | 308 ft | 5 kts | 38° |
| 2026-05-06 18:31 | 50.85427 | 7.16497 | 308 ft | 2 kts | 24° |
| 2026-05-06 18:33 | 50.85442 | 7.16506 | 308 ft | 5 kts | 20° |
| 2026-05-06 18:33 | 50.85495 | 7.16523 | 308 ft | 11 kts | 9° |
| 2026-05-06 18:33 | 50.85556 | 7.16517 | 308 ft | 7 kts | 325° |
| 2026-05-06 18:34 | 50.85564 | 7.16506 | 308 ft | 0 kts | 317° |
| 2026-05-06 18:36 | 50.85565 | 7.16505 | 308 ft | 1 kts | 317° |
| 2026-05-06 18:37 | 50.85599 | 7.16454 | 309 ft | 25 kts | 317° |
| 2026-05-06 18:37 | 50.85912 | 7.16000 | 301 ft | 95 kts | 317° |
| 2026-05-06 18:37 | 50.86547 | 7.15080 | 283 ft | 151 kts | 317° |
| 2026-05-06 18:37 | 50.87316 | 7.13985 | 893 ft | 145 kts | 319° |
| 2026-05-06 18:38 | 50.88070 | 7.12895 | 1546 ft | 149 kts | 320° |
| 2026-05-06 18:38 | 50.88875 | 7.11766 | 1958 ft | 166 kts | 323° |
| 2026-05-06 18:38 | 50.90026 | 7.11243 | 2214 ft | 190 kts | 7° |
| 2026-05-06 18:38 | 50.91321 | 7.12048 | 2636 ft | 210 kts | 24° |
| 2026-05-06 18:39 | 50.92631 | 7.13077 | 3594 ft | 210 kts | 27° |
| 2026-05-06 18:39 | 50.93732 | 7.14647 | 4395 ft | 224 kts | 53° |
| 2026-05-06 18:39 | 50.94503 | 7.16953 | 4897 ft | 250 kts | 62° |
| 2026-05-06 18:40 | 50.96130 | 7.22182 | 6526 ft | 272 kts | 62° |
| 2026-05-06 18:40 | 50.96976 | 7.24888 | 7478 ft | 275 kts | 62° |
| 2026-05-06 18:40 | 50.97835 | 7.27623 | 8450 ft | 278 kts | 61° |
| 2026-05-06 18:40 | 50.98704 | 7.30380 | 9426 ft | 280 kts | 60° |
| 2026-05-06 18:41 | 50.99586 | 7.33169 | 10218 ft | 289 kts | 61° |
| 2026-05-06 18:41 | 51.00511 | 7.36152 | 10518 ft | 314 kts | 64° |
| 2026-05-06 18:41 | 51.01192 | 7.39593 | 10793 ft | 339 kts | 77° |
| 2026-05-06 18:41 | 51.01393 | 7.43389 | 11378 ft | 351 kts | 90° |
| 2026-05-06 18:42 | 51.01073 | 7.47260 | 12082 ft | 358 kts | 102° |
| 2026-05-06 18:42 | 51.00352 | 7.51085 | 12783 ft | 363 kts | 106° |
| 2026-05-06 18:42 | 50.99599 | 7.54930 | 13471 ft | 367 kts | 107° |
| 2026-05-06 18:42 | 50.98835 | 7.58822 | 14061 ft | 372 kts | 108° |
| 2026-05-06 18:43 | 50.98056 | 7.62789 | 14629 ft | 377 kts | 108° |
| 2026-05-06 18:43 | 50.97281 | 7.66730 | 15230 ft | 381 kts | 108° |
| 2026-05-06 18:43 | 50.96487 | 7.70760 | 15857 ft | 384 kts | 108° |
| 2026-05-06 18:43 | 50.95683 | 7.74827 | 16479 ft | 388 kts | 108° |
| 2026-05-06 18:44 | 50.94809 | 7.78911 | 17104 ft | 391 kts | 115° |
| 2026-05-06 18:44 | 50.93353 | 7.82539 | 17718 ft | 393 kts | 133° |
| 2026-05-06 18:44 | 50.91452 | 7.85669 | 18335 ft | 395 kts | 136° |
| 2026-05-06 18:44 | 50.89512 | 7.88789 | 18912 ft | 398 kts | 136° |
| 2026-05-06 18:45 | 50.87560 | 7.91918 | 19501 ft | 401 kts | 136° |
| 2026-05-06 18:45 | 50.85588 | 7.95070 | 20095 ft | 404 kts | 136° |
| 2026-05-06 18:45 | 50.83606 | 7.98240 | 20680 ft | 407 kts | 136° |
| 2026-05-06 18:45 | 50.82284 | 8.00354 | 21051 ft | 408 kts | 137° |
| 2026-05-06 18:46 | 50.79628 | 8.04596 | 21794 ft | 411 kts | 137° |
| 2026-05-06 18:46 | 50.77586 | 8.07862 | 22334 ft | 414 kts | 137° |
| 2026-05-06 18:46 | 50.75559 | 8.11102 | 22853 ft | 417 kts | 137° |
| 2026-05-06 18:46 | 50.73510 | 8.14366 | 23360 ft | 419 kts | 137° |
| 2026-05-06 18:47 | 50.71449 | 8.17645 | 23795 ft | 422 kts | 137° |
| 2026-05-06 18:47 | 50.69403 | 8.20897 | 24227 ft | 424 kts | 137° |
| 2026-05-06 18:47 | 50.67319 | 8.24200 | 24641 ft | 426 kts | 137° |
| 2026-05-06 18:47 | 50.65227 | 8.27509 | 24800 ft | 426 kts | 137° |
| 2026-05-06 18:48 | 50.63136 | 8.30814 | 24835 ft | 425 kts | 137° |
| 2026-05-06 18:48 | 50.61046 | 8.34114 | 24828 ft | 425 kts | 137° |
| 2026-05-06 18:48 | 50.58951 | 8.37414 | 24829 ft | 425 kts | 137° |
| 2026-05-06 18:48 | 50.56863 | 8.40697 | 24809 ft | 425 kts | 137° |
| 2026-05-06 18:49 | 50.54770 | 8.43986 | 24820 ft | 425 kts | 137° |
| 2026-05-06 18:49 | 50.52673 | 8.47280 | 24957 ft | 427 kts | 137° |
| 2026-05-06 18:49 | 50.50565 | 8.50587 | 25354 ft | 428 kts | 137° |
| 2026-05-06 18:49 | 50.48455 | 8.53890 | 25795 ft | 429 kts | 137° |
| 2026-05-06 18:50 | 50.46339 | 8.57201 | 26238 ft | 431 kts | 137° |
| 2026-05-06 18:50 | 50.44213 | 8.60524 | 26684 ft | 432 kts | 137° |
| 2026-05-06 18:50 | 50.42077 | 8.63857 | 27119 ft | 433 kts | 137° |
| 2026-05-06 18:50 | 50.39933 | 8.67197 | 27555 ft | 435 kts | 137° |
| 2026-05-06 18:51 | 50.37784 | 8.70542 | 27979 ft | 436 kts | 137° |
| 2026-05-06 18:51 | 50.35631 | 8.73889 | 28392 ft | 438 kts | 137° |
| 2026-05-06 18:51 | 50.33461 | 8.77256 | 28808 ft | 439 kts | 137° |
| 2026-05-06 18:51 | 50.31286 | 8.80620 | 29207 ft | 440 kts | 137° |
| 2026-05-06 18:52 | 50.29108 | 8.83986 | 29642 ft | 441 kts | 137° |
| 2026-05-06 18:52 | 50.26919 | 8.87368 | 30012 ft | 442 kts | 137° |
| 2026-05-06 18:52 | 50.24730 | 8.90749 | 30345 ft | 443 kts | 137° |
| 2026-05-06 18:52 | 50.22538 | 8.94133 | 30756 ft | 442 kts | 137° |
| 2026-05-06 18:53 | 50.20350 | 8.97500 | 31161 ft | 442 kts | 138° |
| 2026-05-06 18:53 | 50.18158 | 9.00864 | 31562 ft | 441 kts | 138° |
| 2026-05-06 18:53 | 50.15970 | 9.04220 | 31973 ft | 441 kts | 138° |
| 2026-05-06 18:53 | 50.13787 | 9.07568 | 32373 ft | 440 kts | 139° |
| 2026-05-06 18:54 | 50.11597 | 9.10923 | 32796 ft | 440 kts | 139° |
| 2026-05-06 18:54 | 50.09468 | 9.14350 | 33209 ft | 442 kts | 133° |
| 2026-05-06 18:54 | 50.07665 | 9.18244 | 33631 ft | 446 kts | 125° |
| 2026-05-06 18:54 | 50.06303 | 9.22529 | 34059 ft | 450 kts | 116° |
| 2026-05-06 18:55 | 50.05387 | 9.27228 | 34404 ft | 456 kts | 106° |
| 2026-05-06 18:55 | 50.04830 | 9.32102 | 34729 ft | 458 kts | 104° |
| 2026-05-06 18:55 | 50.04276 | 9.37057 | 35024 ft | 459 kts | 104° |
| 2026-05-06 18:55 | 50.03721 | 9.41947 | 35346 ft | 459 kts | 104° |
| 2026-05-06 18:56 | 50.03165 | 9.46769 | 35665 ft | 458 kts | 104° |
| 2026-05-06 18:56 | 50.02596 | 9.51660 | 35959 ft | 459 kts | 104° |
| 2026-05-06 18:56 | 50.02024 | 9.56551 | 36219 ft | 459 kts | 104° |
| 2026-05-06 18:56 | 50.01452 | 9.61448 | 36480 ft | 460 kts | 104° |
| 2026-05-06 18:57 | 50.00880 | 9.66352 | 36711 ft | 461 kts | 104° |
| 2026-05-06 18:57 | 49.99737 | 9.76161 | 36807 ft | 460 kts | 104° |
| 2026-05-06 18:58 | 49.98582 | 9.85940 | 36807 ft | 460 kts | 104° |
| 2026-05-06 18:58 | 49.97419 | 9.95709 | 36805 ft | 460 kts | 104° |
| 2026-05-06 18:59 | 49.96256 | 10.05412 | 36785 ft | 460 kts | 104° |
| 2026-05-06 18:59 | 49.94948 | 10.15213 | 36806 ft | 459 kts | 111° |
| 2026-05-06 19:00 | 49.92990 | 10.24561 | 36807 ft | 459 kts | 112° |
| 2026-05-06 19:00 | 49.90988 | 10.33980 | 36807 ft | 459 kts | 112° |
| 2026-05-06 19:01 | 49.88979 | 10.43381 | 36808 ft | 459 kts | 112° |
| 2026-05-06 19:01 | 49.86969 | 10.52777 | 36790 ft | 459 kts | 112° |
| 2026-05-06 19:02 | 49.85292 | 10.60580 | 36793 ft | 459 kts | 112° |
| 2026-05-06 19:02 | 49.83265 | 10.69954 | 36802 ft | 459 kts | 112° |
| 2026-05-06 19:03 | 49.81228 | 10.79318 | 36802 ft | 459 kts | 112° |
| 2026-05-06 19:03 | 49.79181 | 10.88670 | 36804 ft | 458 kts | 113° |
| 2026-05-06 19:04 | 49.77130 | 10.98009 | 36784 ft | 458 kts | 113° |
| 2026-05-06 19:04 | 49.75082 | 11.07339 | 36789 ft | 458 kts | 113° |
| 2026-05-06 19:05 | 49.73023 | 11.16678 | 36796 ft | 458 kts | 114° |
| 2026-05-06 19:05 | 49.70950 | 11.25998 | 36803 ft | 458 kts | 114° |
| 2026-05-06 19:06 | 49.68875 | 11.35304 | 36784 ft | 458 kts | 114° |
| 2026-05-06 19:06 | 49.66790 | 11.44613 | 36800 ft | 458 kts | 114° |
| 2026-05-06 19:07 | 49.64701 | 11.53893 | 36800 ft | 458 kts | 114° |
| 2026-05-06 19:07 | 49.62607 | 11.63125 | 36799 ft | 458 kts | 114° |
| 2026-05-06 19:08 | 49.60501 | 11.72395 | 36798 ft | 458 kts | 114° |
| 2026-05-06 19:08 | 49.58389 | 11.81660 | 36761 ft | 458 kts | 114° |
| 2026-05-06 19:09 | 49.56267 | 11.90923 | 36769 ft | 459 kts | 114° |
| 2026-05-06 19:09 | 49.54130 | 12.00202 | 36777 ft | 459 kts | 114° |
| 2026-05-06 19:10 | 49.51984 | 12.09477 | 36775 ft | 459 kts | 114° |
| 2026-05-06 19:10 | 49.49842 | 12.18697 | 36761 ft | 460 kts | 114° |
| 2026-05-06 19:11 | 49.47681 | 12.27974 | 36771 ft | 460 kts | 114° |
| 2026-05-06 19:11 | 49.45519 | 12.37223 | 36777 ft | 460 kts | 114° |
| 2026-05-06 19:12 | 49.43346 | 12.46468 | 36770 ft | 460 kts | 114° |
| 2026-05-06 19:12 | 49.41173 | 12.55704 | 36771 ft | 460 kts | 114° |
| 2026-05-06 19:13 | 49.38986 | 12.64933 | 36747 ft | 459 kts | 115° |
| 2026-05-06 19:13 | 49.36793 | 12.74139 | 36757 ft | 460 kts | 115° |
| 2026-05-06 19:14 | 49.34588 | 12.83349 | 36757 ft | 460 kts | 115° |
| 2026-05-06 19:14 | 49.32388 | 12.92492 | 36758 ft | 460 kts | 115° |
| 2026-05-06 19:15 | 49.30169 | 13.01677 | 36766 ft | 460 kts | 115° |
| 2026-05-06 19:15 | 49.27931 | 13.10917 | 36759 ft | 460 kts | 115° |
| 2026-05-06 19:16 | 49.25705 | 13.20093 | 36760 ft | 460 kts | 116° |
| 2026-05-06 19:16 | 49.23469 | 13.29192 | 36762 ft | 459 kts | 116° |
| 2026-05-06 19:17 | 49.21072 | 13.38243 | 36759 ft | 458 kts | 118° |
| 2026-05-06 19:17 | 49.18595 | 13.47225 | 36738 ft | 459 kts | 118° |
| 2026-05-06 19:18 | 49.16130 | 13.56228 | 36745 ft | 459 kts | 118° |
| 2026-05-06 19:18 | 49.13688 | 13.65238 | 36751 ft | 459 kts | 118° |
| 2026-05-06 19:18 | 49.12205 | 13.69485 | 36746 ft | 448 kts | 133° |
| 2026-05-06 19:19 | 49.10102 | 13.72878 | 36744 ft | 437 kts | 144° |
| 2026-05-06 19:19 | 49.05517 | 13.78971 | 36510 ft | 436 kts | 145° |
| 2026-05-06 19:19 | 49.03240 | 13.82020 | 36060 ft | 435 kts | 145° |
| 2026-05-06 19:20 | 49.00974 | 13.85089 | 35791 ft | 436 kts | 145° |
| 2026-05-06 19:20 | 48.98710 | 13.88163 | 35540 ft | 437 kts | 145° |
| 2026-05-06 19:20 | 48.96441 | 13.91245 | 35294 ft | 437 kts | 145° |
| 2026-05-06 19:20 | 48.94172 | 13.94334 | 35042 ft | 438 kts | 145° |
| 2026-05-06 19:21 | 48.91906 | 13.97430 | 34797 ft | 438 kts | 145° |
| 2026-05-06 19:21 | 48.89649 | 14.00528 | 34548 ft | 438 kts | 145° |
| 2026-05-06 19:21 | 48.87571 | 14.03971 | 34290 ft | 450 kts | 132° |
| 2026-05-06 19:21 | 48.86085 | 14.08232 | 34053 ft | 462 kts | 121° |
| 2026-05-06 19:22 | 48.84811 | 14.12719 | 33813 ft | 463 kts | 120° |
| 2026-05-06 19:22 | 48.83553 | 14.17230 | 33507 ft | 464 kts | 120° |
| 2026-05-06 19:22 | 48.82305 | 14.21753 | 33230 ft | 465 kts | 120° |
| 2026-05-06 19:22 | 48.81060 | 14.26276 | 32950 ft | 466 kts | 120° |
| 2026-05-06 19:23 | 48.79800 | 14.30820 | 32684 ft | 467 kts | 120° |
| 2026-05-06 19:23 | 48.78529 | 14.35359 | 32424 ft | 468 kts | 120° |
| 2026-05-06 19:23 | 48.77266 | 14.39841 | 32156 ft | 469 kts | 120° |
| 2026-05-06 19:23 | 48.75981 | 14.44385 | 31897 ft | 469 kts | 120° |
| 2026-05-06 19:24 | 48.74691 | 14.48935 | 31638 ft | 470 kts | 120° |
| 2026-05-06 19:24 | 48.73400 | 14.53489 | 31345 ft | 471 kts | 120° |
| 2026-05-06 19:24 | 48.72101 | 14.58068 | 31089 ft | 472 kts | 120° |
| 2026-05-06 19:24 | 48.70799 | 14.62643 | 30835 ft | 473 kts | 120° |
| 2026-05-06 19:25 | 48.69393 | 14.67043 | 30579 ft | 453 kts | 130° |
| 2026-05-06 19:25 | 48.67427 | 14.70583 | 30336 ft | 429 kts | 144° |
| 2026-05-06 19:25 | 48.65273 | 14.73629 | 30091 ft | 422 kts | 145° |
| 2026-05-06 19:25 | 48.63124 | 14.76619 | 29851 ft | 419 kts | 145° |
| 2026-05-06 19:26 | 48.60977 | 14.79598 | 29574 ft | 417 kts | 145° |
| 2026-05-06 19:26 | 48.58842 | 14.82548 | 29286 ft | 415 kts | 145° |
| 2026-05-06 19:26 | 48.56715 | 14.85479 | 29009 ft | 413 kts | 145° |
| 2026-05-06 19:26 | 48.54597 | 14.88393 | 28679 ft | 411 kts | 145° |
| 2026-05-06 19:27 | 48.52477 | 14.91292 | 28403 ft | 410 kts | 145° |
| 2026-05-06 19:27 | 48.50422 | 14.94199 | 28126 ft | 413 kts | 139° |
| 2026-05-06 19:27 | 48.48750 | 14.97820 | 27208 ft | 435 kts | 121° |
| 2026-05-06 19:27 | 48.47960 | 15.02268 | 26777 ft | 443 kts | 100° |
| 2026-05-06 19:28 | 48.48078 | 15.06876 | 26531 ft | 441 kts | 85° |
| 2026-05-06 19:28 | 48.48531 | 15.11417 | 26119 ft | 436 kts | 85° |
| 2026-05-06 19:28 | 48.49006 | 15.15909 | 25695 ft | 432 kts | 85° |
| 2026-05-06 19:28 | 48.49492 | 15.20359 | 25274 ft | 428 kts | 85° |
| 2026-05-06 19:29 | 48.49978 | 15.24774 | 24866 ft | 425 kts | 85° |
| 2026-05-06 19:29 | 48.50457 | 15.29128 | 24312 ft | 418 kts | 85° |
| 2026-05-06 19:29 | 48.50923 | 15.33427 | 23604 ft | 413 kts | 85° |
| 2026-05-06 19:29 | 48.51375 | 15.37678 | 22880 ft | 408 kts | 85° |
| 2026-05-06 19:30 | 48.51798 | 15.41875 | 22089 ft | 401 kts | 88° |
| 2026-05-06 19:30 | 48.51890 | 15.46034 | 21314 ft | 391 kts | 98° |
| 2026-05-06 19:30 | 48.51664 | 15.50087 | 20664 ft | 387 kts | 100° |
| 2026-05-06 19:30 | 48.51430 | 15.54124 | 20200 ft | 384 kts | 99° |
| 2026-05-06 19:31 | 48.51204 | 15.58119 | 19719 ft | 381 kts | 99° |
| 2026-05-06 19:31 | 48.50981 | 15.62088 | 19246 ft | 379 kts | 99° |
| 2026-05-06 19:31 | 48.50539 | 15.69920 | 18711 ft | 375 kts | 99° |
| 2026-05-06 19:32 | 48.50314 | 15.73843 | 18736 ft | 376 kts | 99° |
| 2026-05-06 19:32 | 48.50088 | 15.77780 | 18733 ft | 377 kts | 99° |
| 2026-05-06 19:32 | 48.49859 | 15.81717 | 18736 ft | 377 kts | 99° |
| 2026-05-06 19:32 | 48.49628 | 15.85658 | 18737 ft | 377 kts | 99° |
| 2026-05-06 19:33 | 48.49395 | 15.89583 | 18516 ft | 374 kts | 99° |
| 2026-05-06 19:33 | 48.49159 | 15.93483 | 18071 ft | 372 kts | 100° |
| 2026-05-06 19:33 | 48.48921 | 15.97355 | 17549 ft | 370 kts | 99° |
| 2026-05-06 19:33 | 48.48658 | 16.01184 | 17079 ft | 364 kts | 104° |
| 2026-05-06 19:34 | 48.47987 | 16.04798 | 16607 ft | 354 kts | 117° |
| 2026-05-06 19:34 | 48.46839 | 16.08020 | 16130 ft | 345 kts | 129° |
| 2026-05-06 19:34 | 48.45302 | 16.10731 | 15667 ft | 336 kts | 141° |
| 2026-05-06 19:34 | 48.43469 | 16.12844 | 15194 ft | 329 kts | 153° |
| 2026-05-06 19:35 | 48.41437 | 16.14348 | 14713 ft | 323 kts | 161° |
| 2026-05-06 19:35 | 48.39388 | 16.15686 | 14303 ft | 319 kts | 160° |
| 2026-05-06 19:35 | 48.37359 | 16.17024 | 13874 ft | 316 kts | 160° |
| 2026-05-06 19:35 | 48.35351 | 16.18350 | 13432 ft | 314 kts | 160° |
| 2026-05-06 19:36 | 48.33503 | 16.20095 | 12941 ft | 319 kts | 138° |
| 2026-05-06 19:36 | 48.32359 | 16.22971 | 12465 ft | 328 kts | 112° |
| 2026-05-06 19:36 | 48.32059 | 16.26378 | 11986 ft | 334 kts | 89° |
| 2026-05-06 19:36 | 48.32669 | 16.29698 | 11751 ft | 339 kts | 63° |
| 2026-05-06 19:37 | 48.34193 | 16.32392 | 11757 ft | 343 kts | 36° |
| 2026-05-06 19:37 | 48.36372 | 16.33795 | 11764 ft | 343 kts | 8° |
| 2026-05-06 19:37 | 48.38735 | 16.33770 | 11757 ft | 340 kts | 348° |
| 2026-05-06 19:37 | 48.40307 | 16.33344 | 11752 ft | 340 kts | 346° |
| 2026-05-06 19:38 | 48.43379 | 16.32424 | 11751 ft | 340 kts | 346° |
| 2026-05-06 19:38 | 48.45704 | 16.31710 | 11749 ft | 340 kts | 345° |
| 2026-05-06 19:38 | 48.48022 | 16.30994 | 11752 ft | 340 kts | 345° |
| 2026-05-06 19:38 | 48.50307 | 16.30287 | 11745 ft | 327 kts | 345° |
| 2026-05-06 19:39 | 48.52486 | 16.29623 | 11749 ft | 312 kts | 345° |
| 2026-05-06 19:39 | 48.54565 | 16.28998 | 11744 ft | 299 kts | 346° |
| 2026-05-06 19:39 | 48.56585 | 16.28394 | 11747 ft | 294 kts | 346° |
| 2026-05-06 19:39 | 48.58594 | 16.27791 | 11749 ft | 294 kts | 345° |
| 2026-05-06 19:40 | 48.60599 | 16.27195 | 11748 ft | 293 kts | 345° |
| 2026-05-06 19:40 | 48.62595 | 16.26575 | 11746 ft | 291 kts | 341° |
| 2026-05-06 19:40 | 48.64348 | 16.25188 | 11754 ft | 282 kts | 314° |
| 2026-05-06 19:40 | 48.65448 | 16.22838 | 11748 ft | 271 kts | 286° |
| 2026-05-06 19:41 | 48.65703 | 16.20094 | 11508 ft | 260 kts | 259° |
| 2026-05-06 19:41 | 48.65078 | 16.17633 | 11189 ft | 253 kts | 231° |
| 2026-05-06 19:41 | 48.63746 | 16.15959 | 10871 ft | 251 kts | 209° |
| 2026-05-06 19:41 | 48.62182 | 16.14764 | 10542 ft | 252 kts | 206° |
| 2026-05-06 19:42 | 48.60601 | 16.13626 | 10244 ft | 251 kts | 206° |
| 2026-05-06 19:42 | 48.59022 | 16.12517 | 9962 ft | 250 kts | 205° |
| 2026-05-06 19:42 | 48.57444 | 16.11423 | 9667 ft | 249 kts | 205° |
| 2026-05-06 19:42 | 48.55874 | 16.10341 | 9368 ft | 248 kts | 205° |
| 2026-05-06 19:43 | 48.54310 | 16.09270 | 9060 ft | 247 kts | 205° |
| 2026-05-06 19:43 | 48.52747 | 16.08209 | 8746 ft | 246 kts | 205° |
| 2026-05-06 19:43 | 48.51093 | 16.07593 | 8426 ft | 249 kts | 181° |
| 2026-05-06 19:43 | 48.49390 | 16.08111 | 8107 ft | 252 kts | 167° |
| 2026-05-06 19:44 | 48.47743 | 16.09036 | 7786 ft | 254 kts | 159° |
| 2026-05-06 19:44 | 48.46137 | 16.10170 | 7477 ft | 254 kts | 158° |
| 2026-05-06 19:44 | 48.44542 | 16.11320 | 7176 ft | 254 kts | 158° |
| 2026-05-06 19:44 | 48.42953 | 16.12475 | 6879 ft | 253 kts | 158° |
| 2026-05-06 19:45 | 48.41370 | 16.13629 | 6579 ft | 253 kts | 158° |
| 2026-05-06 19:45 | 48.40322 | 16.14392 | 6353 ft | 253 kts | 158° |
| 2026-05-06 19:45 | 48.38734 | 16.15546 | 6036 ft | 253 kts | 159° |
| 2026-05-06 19:45 | 48.37143 | 16.16697 | 5957 ft | 253 kts | 159° |
| 2026-05-06 19:46 | 48.35542 | 16.17851 | 5971 ft | 256 kts | 158° |
| 2026-05-06 19:46 | 48.33410 | 16.19387 | 5980 ft | 256 kts | 159° |
| 2026-05-06 19:46 | 48.32326 | 16.20180 | 5980 ft | 256 kts | 155° |
| 2026-05-06 19:46 | 48.30991 | 16.21901 | 5982 ft | 257 kts | 129° |
| 2026-05-06 19:47 | 48.30291 | 16.24367 | 5989 ft | 261 kts | 101° |
| 2026-05-06 19:47 | 48.30395 | 16.27085 | 5989 ft | 263 kts | 75° |
| 2026-05-06 19:47 | 48.30895 | 16.29716 | 5987 ft | 262 kts | 73° |
| 2026-05-06 19:47 | 48.31482 | 16.32302 | 5979 ft | 262 kts | 60° |
| 2026-05-06 19:48 | 48.32699 | 16.34274 | 5985 ft | 258 kts | 28° |
| 2026-05-06 19:48 | 48.34365 | 16.35074 | 5986 ft | 250 kts | 358° |
| 2026-05-06 19:48 | 48.36039 | 16.34670 | 5989 ft | 244 kts | 340° |
| 2026-05-06 19:48 | 48.37672 | 16.33966 | 5978 ft | 241 kts | 339° |
| 2026-05-06 19:49 | 48.39238 | 16.33298 | 5978 ft | 228 kts | 339° |
| 2026-05-06 19:49 | 48.40748 | 16.32654 | 5978 ft | 224 kts | 339° |
| 2026-05-06 19:49 | 48.42247 | 16.32009 | 5978 ft | 224 kts | 340° |
| 2026-05-06 19:49 | 48.43744 | 16.31367 | 5976 ft | 224 kts | 340° |
| 2026-05-06 19:50 | 48.45225 | 16.30733 | 5979 ft | 224 kts | 339° |
| 2026-05-06 19:50 | 48.46746 | 16.30081 | 5979 ft | 224 kts | 339° |
| 2026-05-06 19:50 | 48.48225 | 16.29429 | 5979 ft | 224 kts | 338° |
| 2026-05-06 19:50 | 48.49724 | 16.28760 | 5979 ft | 224 kts | 339° |
| 2026-05-06 19:51 | 48.51215 | 16.28081 | 5973 ft | 223 kts | 339° |
| 2026-05-06 19:51 | 48.52702 | 16.27398 | 5970 ft | 223 kts | 339° |
| 2026-05-06 19:51 | 48.54185 | 16.26703 | 5974 ft | 224 kts | 339° |
| 2026-05-06 19:51 | 48.55670 | 16.26020 | 5953 ft | 222 kts | 338° |
| 2026-05-06 19:52 | 48.57144 | 16.25341 | 5679 ft | 222 kts | 338° |
| 2026-05-06 19:52 | 48.58630 | 16.24672 | 5372 ft | 222 kts | 338° |
| 2026-05-06 19:52 | 48.60112 | 16.23994 | 5063 ft | 224 kts | 339° |
| 2026-05-06 19:52 | 48.61596 | 16.23305 | 4975 ft | 224 kts | 339° |
| 2026-05-06 19:53 | 48.63153 | 16.23035 | 4972 ft | 232 kts | 7° |
| 2026-05-06 19:53 | 48.64598 | 16.24043 | 4974 ft | 236 kts | 42° |
| 2026-05-06 19:53 | 48.65482 | 16.26083 | 4973 ft | 234 kts | 77° |
| 2026-05-06 19:53 | 48.65505 | 16.28474 | 4967 ft | 226 kts | 111° |
| 2026-05-06 19:54 | 48.64701 | 16.30419 | 4975 ft | 217 kts | 141° |
| 2026-05-06 19:54 | 48.63584 | 16.31934 | 4975 ft | 216 kts | 145° |
| 2026-05-06 19:54 | 48.62436 | 16.33407 | 4973 ft | 215 kts | 145° |
| 2026-05-06 19:54 | 48.61273 | 16.34842 | 4979 ft | 216 kts | 146° |
| 2026-05-06 19:55 | 48.60029 | 16.36047 | 4980 ft | 211 kts | 160° |
| 2026-05-06 19:55 | 48.58665 | 16.36847 | 4980 ft | 210 kts | 165° |
| 2026-05-06 19:55 | 48.57278 | 16.37558 | 4980 ft | 210 kts | 165° |
| 2026-05-06 19:55 | 48.55889 | 16.38306 | 4979 ft | 215 kts | 165° |
| 2026-05-06 19:56 | 48.54480 | 16.39091 | 4981 ft | 217 kts | 165° |
| 2026-05-06 19:56 | 48.53062 | 16.39869 | 4980 ft | 217 kts | 165° |
| 2026-05-06 19:56 | 48.51635 | 16.40607 | 4978 ft | 216 kts | 167° |
| 2026-05-06 19:56 | 48.50201 | 16.41300 | 4977 ft | 216 kts | 167° |
| 2026-05-06 19:57 | 48.48763 | 16.41989 | 4978 ft | 217 kts | 167° |
| 2026-05-06 19:57 | 48.47328 | 16.42691 | 4978 ft | 217 kts | 167° |
| 2026-05-06 19:57 | 48.45887 | 16.43352 | 4977 ft | 216 kts | 168° |
| 2026-05-06 19:57 | 48.44464 | 16.43970 | 4985 ft | 216 kts | 168° |
| 2026-05-06 19:58 | 48.43023 | 16.44589 | 4987 ft | 216 kts | 169° |
| 2026-05-06 19:58 | 48.41576 | 16.45208 | 4989 ft | 216 kts | 169° |
| 2026-05-06 19:58 | 48.40137 | 16.45825 | 4993 ft | 215 kts | 169° |
| 2026-05-06 19:58 | 48.38698 | 16.46441 | 4992 ft | 215 kts | 168° |
| 2026-05-06 19:59 | 48.37259 | 16.47057 | 4995 ft | 215 kts | 168° |
| 2026-05-06 19:59 | 48.35819 | 16.47673 | 4993 ft | 215 kts | 168° |
| 2026-05-06 19:59 | 48.34396 | 16.48282 | 4973 ft | 206 kts | 168° |
| 2026-05-06 19:59 | 48.33041 | 16.48862 | 4809 ft | 199 kts | 170° |
| 2026-05-06 20:00 | 48.31724 | 16.49424 | 4565 ft | 195 kts | 170° |
| 2026-05-06 20:00 | 48.30431 | 16.49975 | 4313 ft | 192 kts | 170° |
| 2026-05-06 20:00 | 48.29157 | 16.50518 | 4066 ft | 189 kts | 170° |
| 2026-05-06 20:00 | 48.27907 | 16.51051 | 3805 ft | 185 kts | 171° |
| 2026-05-06 20:01 | 48.26680 | 16.51574 | 3554 ft | 180 kts | 171° |
| 2026-05-06 20:01 | 48.25493 | 16.52080 | 3339 ft | 174 kts | 172° |
| 2026-05-06 20:01 | 48.24347 | 16.52568 | 3106 ft | 168 kts | 172° |
| 2026-05-06 20:01 | 48.23233 | 16.53042 | 2885 ft | 164 kts | 172° |
| 2026-05-06 20:02 | 48.22149 | 16.53503 | 2675 ft | 160 kts | 172° |
| 2026-05-06 20:02 | 48.21087 | 16.53954 | 2465 ft | 157 kts | 172° |
| 2026-05-06 20:02 | 48.20053 | 16.54394 | 2301 ft | 148 kts | 172° |
| 2026-05-06 20:02 | 48.19119 | 16.54793 | 2074 ft | 135 kts | 172° |
| 2026-05-06 20:03 | 48.18237 | 16.55167 | 1888 ft | 128 kts | 171° |
| 2026-05-06 20:03 | 48.17367 | 16.55534 | 1724 ft | 127 kts | 170° |
| 2026-05-06 20:03 | 48.16522 | 16.55891 | 1561 ft | 125 kts | 169° |
| 2026-05-06 20:03 | 48.15681 | 16.56247 | 1387 ft | 126 kts | 167° |
| 2026-05-06 20:04 | 48.14835 | 16.56606 | 1228 ft | 126 kts | 167° |
| 2026-05-06 20:04 | 48.13998 | 16.56960 | 1050 ft | 129 kts | 163° |
| 2026-05-06 20:04 | 48.13142 | 16.57312 | 887 ft | 125 kts | 164° |
| 2026-05-06 20:04 | 48.12302 | 16.57692 | 697 ft | 127 kts | 163° |
| 2026-05-06 20:05 | 48.11486 | 16.58028 | 621 ft | 114 kts | 165° |
| 2026-05-06 20:05 | 48.10860 | 16.58288 | 617 ft | 76 kts | 164° |
| 2026-05-06 20:05 | 48.10441 | 16.58464 | 616 ft | 49 kts | 168° |
| 2026-05-06 20:05 | 48.10149 | 16.58407 | 614 ft | 24 kts | 197° |
| 2026-05-06 20:06 | 48.10100 | 16.58209 | 612 ft | 18 kts | 304° |
| 2026-05-06 20:06 | 48.10187 | 16.58160 | 618 ft | 10 kts | 344° |
| 2026-05-06 20:06 | 48.10241 | 16.58134 | 609 ft | 1 kts | 343° |
| 2026-05-06 20:09 | 48.10243 | 16.58134 | 609 ft | 2 kts | 343° |
| 2026-05-06 20:09 | 48.10268 | 16.58123 | 618 ft | 5 kts | 343° |
| 2026-05-06 20:09 | 48.10308 | 16.58105 | 620 ft | 7 kts | 344° |
| 2026-05-06 20:10 | 48.10369 | 16.58079 | 613 ft | 11 kts | 344° |
| 2026-05-06 20:10 | 48.10420 | 16.58058 | 612 ft | 8 kts | 345° |
| 2026-05-06 20:10 | 48.10487 | 16.58031 | 617 ft | 12 kts | 345° |
| 2026-05-06 20:10 | 48.10574 | 16.57995 | 617 ft | 12 kts | 343° |
| 2026-05-06 20:11 | 48.10627 | 16.57971 | 619 ft | 6 kts | 343° |
| 2026-05-06 20:11 | 48.10676 | 16.57949 | 610 ft | 9 kts | 343° |
| 2026-05-06 20:11 | 48.10753 | 16.57917 | 610 ft | 15 kts | 345° |
| 2026-05-06 20:11 | 48.10869 | 16.57869 | 610 ft | 19 kts | 343° |
| 2026-05-06 20:12 | 48.11011 | 16.57806 | 618 ft | 20 kts | 337° |
| 2026-05-06 20:12 | 48.11083 | 16.57667 | 610 ft | 13 kts | 296° |
| 2026-05-06 20:12 | 48.11129 | 16.57524 | 617 ft | 17 kts | 295° |
| 2026-05-06 20:12 | 48.11179 | 16.57365 | 615 ft | 14 kts | 295° |
| 2026-05-06 20:13 | 48.11223 | 16.57228 | 610 ft | 16 kts | 296° |
| 2026-05-06 20:13 | 48.11278 | 16.57060 | 617 ft | 19 kts | 296° |
| 2026-05-06 20:13 | 48.11335 | 16.56889 | 618 ft | 18 kts | 296° |
| 2026-05-06 20:13 | 48.11391 | 16.56718 | 622 ft | 18 kts | 296° |
| 2026-05-06 20:14 | 48.11445 | 16.56550 | 617 ft | 18 kts | 295° |
| 2026-05-06 20:14 | 48.11499 | 16.56383 | 613 ft | 18 kts | 296° |
| 2026-05-06 20:14 | 48.11561 | 16.56193 | 617 ft | 22 kts | 296° |
| 2026-05-06 20:14 | 48.11634 | 16.55972 | 613 ft | 26 kts | 296° |
| 2026-05-06 20:15 | 48.11713 | 16.55727 | 608 ft | 27 kts | 296° |
| 2026-05-06 20:15 | 48.11793 | 16.55484 | 614 ft | 15 kts | 296° |
| 2026-05-06 20:15 | 48.11847 | 16.55427 | 618 ft | 11 kts | 7° |
| 2026-05-06 20:15 | 48.11927 | 16.55448 | 610 ft | 11 kts | 20° |
| 2026-05-06 20:16 | 48.11987 | 16.55493 | 610 ft | 10 kts | 26° |
| 2026-05-06 20:16 | 48.12032 | 16.55534 | 618 ft | 5 kts | 62° |
| 2026-05-06 20:16 | 48.12029 | 16.55571 | 610 ft | 5 kts | 107° |
| 2026-05-06 20:16 | 48.12020 | 16.55601 | 610 ft | 2 kts | 115° |
| 2026-05-06 20:17 | 48.12017 | 16.55612 | 621 ft | 0 kts | 116° |